Fond du Lac, WI

4:58 AM CST on February 22, 2017 (GMT -0600)
Fond du Lac County | | Change Station
Active Advisory: Marine Fog Advisory

Elev 807 ft 43.77 °N, 88.49 °W | Updated 5 minutes ago

Clear
Clear
48 °F
Feels Like 48 °F
N
9
Wind Variable Wind from SSW

Today
High -- | Low -- °F
--% Chance of Precip.
Yesterday
High -- | Low -- °F
Precip. -- in
Pressure 29.73 in
Visibility 10.0 miles
Clouds Clear
Dew Point 42 °F
Humidity 80%
Rainfall 0.00 in
Snow Depth Not available.
6:41 AM 5:33 PM
Waning Crescent, 18% visible
METAR KFLD 221053Z AUTO 21008KT 10SM CLR 09/06 A2972 RMK AO2 SLP065 T00890056
Pressure 29.73 in
Visibility 10.0 miles
Clouds Clear
Dew Point 42 °F
Humidity 80%
Rainfall 0.00 in
Snow Depth Not available.
6:41 AM 5:33 PM
Waning Crescent, 18% visible
METAR KFLD 221053Z AUTO 21008KT 10SM CLR 09/06 A2972 RMK AO2 SLP065 T00890056

Get Your Daily Forecast Email!

Thanks for signing up!

Be on the lookout for a verification email in your inbox.

You'll start receiving the daily forecast at 8 AM.

×

10-Day Weather Forecast

Almanac

Astronomy

Feb. 22, 2017 Rise Set
Actual Time
Civil Twilight
Nautical Twilight
Astronomical Twilight
Moon
Length of Visible Light
Length of Day
Tomorrow will be .
, % of the Moon is Illuminated

Today's Extremes

State Highs State Lows

Community

WunderPhotos

Upload Photos

1,962,540 photos uploaded!

WunderBlog® & News

Nearby

Air Quality

  Air Quality AQ Index Pollutant
Not available.

Snow Depth

Station Depth Elevation

Earthquake Activity

City Distance Mag. Time & Date
Minimum magnitude displayed is 2.5.

Coastal Water Temperatures

Place Temperature

Stations

Nearby Weather Stations

Station Location Temp. Windchill Dew Point Humidity Wind Precip. Elev Updated Type
                   

Watches & Warnings

Marine Fog Advisory
Issued: 3:35 AM CST Feb. 22, 2017 – National Weather Service

... Dense fog advisory remains in effect until 9 am CST this
morning...

* visibility: widespread visibility below 1 mile. Visibility will
improve by mid morning... as off shore winds increase.

Precautionary/preparedness actions...

A dense fog advisory means visibilities will frequently be
reduced to less than one mile. Inexperienced mariners...
especially those operating smaller vessels should avoid
navigating in these conditions.


Wood
www.Weather.Gov/mkx